Time;durP1;ratioP1;P1;durP2;ratioP2;P2;SDS_P1;SDS_P2;PMS_P1;PMS_P2;Temp;Humidity;BMP_temperature;BMP_pressure;BME280_temperature;BME280_humidity;BME280_pressure;Samples;Min_cycle;Max_cycle;Signal;HPM_P1;HPM_P2
2022/04/23 00:00:54;;;;;;;13.73;10.48;;;;;;;10.51;66.29;100141.31;5064268;28;20031;-29
2022/04/23 00:03:19;;;;;;;14.32;10.70;;;;;;;10.48;66.24;100131.69;5063402;28;20067;-30
2022/04/23 00:05:44;;;;;;;16.40;11.27;;;;;;;10.47;66.15;100139.63;5064284;28;20051;-30
2022/04/23 00:08:10;;;;;;;13.70;10.45;;;;;;;10.45;66.29;100133.47;5061707;28;20038;-30
2022/04/23 00:10:36;;;;;;;15.15;11.15;;;;;;;10.42;66.19;100136.13;5043914;28;20059;-29
2022/04/23 00:13:04;;;;;;;15.98;11.50;;;;;;;10.42;66.15;100133.50;5062206;28;20024;-30
2022/04/23 00:15:36;;;;;;;15.07;11.13;;;;;;;10.40;66.18;100128.25;5063459;28;20032;-31
2022/04/23 00:18:03;;;;;;;16.27;11.15;;;;;;;10.39;66.39;100129.16;5059173;28;20024;-31
2022/04/23 00:20:30;;;;;;;16.50;11.07;;;;;;;10.38;66.51;100130.91;5066160;28;20052;-31
2022/04/23 00:22:55;;;;;;;15.32;11.40;;;;;;;10.37;66.53;100130.97;5062997;28;20021;-30
2022/04/23 00:25:21;;;;;;;14.30;11.40;;;;;;;10.34;66.34;100129.22;5065402;28;20518;-31
2022/04/23 00:27:46;;;;;;;17.50;11.77;;;;;;;10.35;66.30;100131.00;5058992;28;20086;-29
2022/04/23 00:30:11;;;;;;;14.27;11.18;;;;;;;10.33;66.22;100132.75;5066532;28;20056;-28
2022/04/23 00:32:37;;;;;;;13.60;11.05;;;;;;;10.32;66.24;100130.16;5062509;28;20167;-31
2022/04/23 00:35:03;;;;;;;12.60;10.27;;;;;;;10.30;66.13;100126.69;5053589;28;20031;-29
2022/04/23 00:37:28;;;;;;;15.27;11.32;;;;;;;10.27;66.28;100125.81;5057568;28;20453;-32
2022/04/23 00:39:53;;;;;;;13.00;10.85;;;;;;;10.23;66.25;100116.25;5046028;28;20040;-33
2022/04/23 00:42:19;;;;;;;14.35;11.20;;;;;;;10.25;66.27;100124.13;5044066;28;20549;-30
2022/04/23 00:44:44;;;;;;;14.40;11.52;;;;;;;10.23;66.17;100123.25;5055498;28;20049;-29
2022/04/23 00:47:10;;;;;;;13.35;10.52;;;;;;;10.22;66.22;100118.91;5063765;28;20029;-29
2022/04/23 00:49:35;;;;;;;13.40;10.63;;;;;;;10.19;66.02;100119.81;5045831;28;20029;-31
2022/04/23 00:52:01;;;;;;;14.38;10.38;;;;;;;10.18;65.99;100117.22;5052808;28;20407;-29
2022/04/23 00:54:27;;;;;;;13.23;11.80;;;;;;;10.17;66.19;100126.88;5061489;28;20024;-29
2022/04/23 00:56:53;;;;;;;13.57;9.98;;;;;;;10.13;65.77;100126.06;5060630;28;20044;-31
2022/04/23 00:59:18;;;;;;;14.40;10.45;;;;;;;10.13;65.69;100118.16;5060781;28;20051;-30
2022/04/23 01:01:44;;;;;;;13.25;10.35;;;;;;;10.10;66.17;100123.47;5040899;28;20095;-30
2022/04/23 01:04:12;;;;;;;12.93;10.57;;;;;;;10.08;65.57;100122.63;5057720;28;20485;-28
2022/04/23 01:06:38;;;;;;;13.13;10.90;;;;;;;10.05;65.63;100121.81;5061423;28;20093;-32
2022/04/23 01:09:05;;;;;;;14.10;9.98;;;;;;;10.04;65.52;100127.97;5054709;28;20032;-29
2022/04/23 01:11:32;;;;;;;12.85;10.05;;;;;;;10.01;65.76;100131.53;5061011;28;20032;-30
2022/04/23 01:13:58;;;;;;;13.63;10.32;;;;;;;9.98;65.44;100128.94;5061000;28;20031;-29
2022/04/23 01:16:23;;;;;;;12.00;10.15;;;;;;;9.95;65.39;100121.97;5062787;28;20748;-29
2022/04/23 01:18:48;;;;;;;13.63;10.43;;;;;;;9.92;65.48;100121.13;5046745;28;20112;-30
2022/04/23 01:21:14;;;;;;;14.88;9.88;;;;;;;9.90;65.63;100120.28;5060118;28;20033;-29
2022/04/23 01:23:42;;;;;;;12.50;10.63;;;;;;;9.88;65.49;100125.56;5058547;28;20021;-31
2022/04/23 01:26:11;;;;;;;12.63;10.05;;;;;;;9.82;65.79;100126.53;5042536;28;20024;-32
2022/04/23 01:28:37;;;;;;;12.55;10.32;;;;;;;9.78;65.49;100116.94;5047387;28;20169;-30
2022/04/23 01:31:04;;;;;;;11.32;9.88;;;;;;;9.77;65.52;100120.44;5052462;28;20103;-29
2022/04/23 01:33:30;;;;;;;11.75;10.05;;;;;;;9.74;65.34;100123.16;5066700;28;20029;-30
2022/04/23 01:35:55;;;;;;;13.65;10.68;;;;;;;9.69;65.50;100119.69;5065240;28;20499;-31
2022/04/23 01:38:21;;;;;;;13.20;11.27;;;;;;;9.67;65.63;100118.88;5064025;28;20029;-28
2022/04/23 01:40:46;;;;;;;10.70;9.60;;;;;;;9.64;65.40;100125.06;5065021;28;20031;-29
2022/04/23 01:43:11;;;;;;;12.18;10.32;;;;;;;9.61;65.52;100123.31;5065572;28;20033;-30
2022/04/23 01:45:37;;;;;;;12.10;10.13;;;;;;;9.58;65.73;100127.75;5044909;28;20296;-31
2022/04/23 01:48:03;;;;;;;11.48;9.20;;;;;;;9.53;65.70;100127.81;5062665;28;20021;-31
2022/04/23 01:50:28;;;;;;;12.48;10.32;;;;;;;9.51;65.37;100121.72;5062846;28;20039;-30
2022/04/23 01:52:53;;;;;;;12.63;10.45;;;;;;;9.48;65.33;100127.00;5064244;28;20569;-32
2022/04/23 01:55:19;;;;;;;12.00;9.48;;;;;;;9.43;65.82;100128.81;5063691;28;20440;-31
2022/04/23 01:57:44;;;;;;;11.32;9.95;;;;;;;9.39;65.50;100127.13;5064987;28;20506;-30
2022/04/23 02:00:13;;;;;;;12.75;10.55;;;;;;;9.35;65.26;100128.94;5065842;28;20446;-32
2022/04/23 02:02:39;;;;;;;11.60;10.40;;;;;;;9.31;65.38;100125.44;5063973;28;20107;-31
2022/04/23 02:05:05;;;;;;;12.43;10.52;;;;;;;9.27;65.35;100129.00;5067970;28;20026;-31
2022/04/23 02:07:30;;;;;;;11.38;10.27;;;;;;;9.24;65.52;100137.81;5067087;28;20499;-31
2022/04/23 02:09:56;;;;;;;11.30;10.05;;;;;;;9.20;65.07;100127.34;5067410;28;20028;-30
2022/04/23 02:12:21;;;;;;;11.30;10.20;;;;;;;9.15;65.61;100124.78;5065483;28;20078;-28
2022/04/23 02:14:48;;;;;;;12.20;10.90;;;;;;;9.11;65.50;100123.94;5064568;28;20029;-30
2022/04/23 02:17:14;;;;;;;12.75;10.00;;;;;;;9.08;65.68;100129.25;5064262;28;20100;-30
2022/04/23 02:19:39;;;;;;;13.23;10.70;;;;;;;9.03;65.71;100125.78;5065868;28;20052;-30
2022/04/23 02:22:05;;;;;;;10.88;9.77;;;;;;;9.00;65.59;100120.56;5060288;28;20051;-31
2022/04/23 02:24:30;;;;;;;11.55;10.25;;;;;;;8.97;65.62;100121.47;5062803;28;20055;-31
2022/04/23 02:26:56;;;;;;;12.15;10.85;;;;;;;8.92;65.52;100118.03;5060591;28;20035;-30
2022/04/23 02:29:21;;;;;;;13.70;11.48;;;;;;;8.89;65.58;100123.31;5061129;28;20443;-30
2022/04/23 02:31:47;;;;;;;12.10;10.90;;;;;;;8.84;66.07;100131.25;5065393;28;20055;-30
2022/04/23 02:34:12;;;;;;;11.70;10.48;;;;;;;8.80;65.97;100124.28;5066427;28;20036;-30
2022/04/23 02:36:38;;;;;;;14.25;10.55;;;;;;;8.78;65.75;100131.34;5062325;28;20032;-30
2022/04/23 02:39:03;;;;;;;12.52;11.27;;;;;;;8.75;65.76;100126.09;5063132;28;20036;-30
2022/04/23 02:41:29;;;;;;;12.85;10.30;;;;;;;8.69;65.85;100127.03;5063111;28;20034;-30
2022/04/23 02:43:54;;;;;;;12.98;10.80;;;;;;;8.67;65.86;100122.69;5063095;28;20021;-30
2022/04/23 02:46:20;;;;;;;12.15;10.48;;;;;;;8.63;65.80;100118.34;5065766;28;20036;-30
2022/04/23 02:48:45;;;;;;;11.63;10.38;;;;;;;8.59;65.99;100128.88;5064074;28;20081;-30
2022/04/23 02:51:15;;;;;;;11.63;10.43;;;;;;;8.57;65.98;100122.75;5062968;28;20024;-30
2022/04/23 02:53:41;;;;;;;11.98;10.77;;;;;;;8.54;65.99;100128.03;5061764;28;20035;-30
2022/04/23 02:56:11;;;;;;;12.55;10.95;;;;;;;8.50;65.73;100121.03;5066857;28;20081;-30
2022/04/23 02:58:36;;;;;;;11.68;10.48;;;;;;;8.45;66.18;100117.59;5059201;28;20089;-30
2022/04/23 03:01:02;;;;;;;12.90;11.52;;;;;;;8.42;66.30;100125.50;5062743;28;20400;-30
2022/04/23 03:03:28;;;;;;;11.70;10.60;;;;;;;8.39;66.15;100120.28;5061537;28;20128;-30
2022/04/23 03:05:53;;;;;;;13.18;11.77;;;;;;;8.36;66.25;100122.94;5060312;28;20031;-30
2022/04/23 03:08:19;;;;;;;11.55;10.32;;;;;;;8.32;66.09;100128.22;5065789;28;20017;-30
2022/04/23 03:10:44;;;;;;;12.07;10.82;;;;;;;8.30;66.06;100129.13;5064251;28;20378;-30
2022/04/23 03:13:09;;;;;;;13.25;11.80;;;;;;;8.27;66.48;100135.25;5059818;28;20036;-30
2022/04/23 03:15:36;;;;;;;12.30;11.05;;;;;;;8.24;66.39;100134.41;5061519;28;20048;-30
2022/04/23 03:18:05;;;;;;;12.32;10.85;;;;;;;8.20;66.31;100133.56;5061843;28;20397;-29
2022/04/23 03:20:31;;;;;;;13.63;11.65;;;;;;;8.18;66.51;100130.97;5066467;28;20035;-30
2022/04/23 03:22:56;;;;;;;15.40;11.77;;;;;;;8.14;66.47;100126.59;5064128;28;20032;-31
2022/04/23 03:25:22;;;;;;;13.68;11.48;;;;;;;8.09;66.52;100124.03;5062640;28;20020;-30
2022/04/23 03:27:47;;;;;;;14.05;11.93;;;;;;;8.08;66.67;100130.13;5060257;28;20533;-30
2022/04/23 03:30:13;;;;;;;12.80;11.23;;;;;;;8.06;66.35;100137.19;5064232;28;20498;-30
2022/04/23 03:32:38;;;;;;;12.75;11.35;;;;;;;8.03;66.45;100138.94;5059396;28;20025;-30
2022/04/23 03:35:07;;;;;;;13.18;11.35;;;;;;;8.00;66.68;100139.00;5061178;28;20032;-30
2022/04/23 03:37:33;;;;;;;14.50;12.15;;;;;;;7.96;66.77;100139.00;5057941;28;20036;-30
2022/04/23 03:40:00;;;;;;;13.60;11.45;;;;;;;7.93;66.88;100146.00;5058086;28;20485;-30
2022/04/23 03:42:25;;;;;;;14.25;12.10;;;;;;;7.91;66.73;100143.41;5058487;28;20141;-30
2022/04/23 03:44:51;;;;;;;13.80;11.98;;;;;;;7.87;66.83;100143.44;5061237;28;20473;-30
2022/04/23 03:47:16;;;;;;;13.85;12.32;;;;;;;7.84;66.86;100146.97;5060161;28;20287;-30
2022/04/23 03:49:42;;;;;;;14.73;12.23;;;;;;;7.80;66.80;100143.47;5044961;28;20075;-30
2022/04/23 03:52:10;;;;;;;14.55;11.65;;;;;;;7.78;66.50;100153.13;5062477;28;20492;-30
2022/04/23 03:54:35;;;;;;;16.33;13.70;;;;;;;7.75;66.46;100142.63;5063297;28;20071;-29
2022/04/23 03:57:00;;;;;;;13.35;11.63;;;;;;;7.75;66.90;100147.00;5060001;28;20476;-31
2022/04/23 03:59:26;;;;;;;15.90;12.48;;;;;;;7.70;67.05;100153.16;5060908;28;20038;-32
2022/04/23 04:01:53;;;;;;;16.38;12.48;;;;;;;7.68;67.01;100151.44;5062432;28;20033;-31
2022/04/23 04:04:19;;;;;;;13.13;11.73;;;;;;;7.66;66.67;100155.78;5061958;28;20447;-31
2022/04/23 04:06:45;;;;;;;13.90;12.48;;;;;;;7.64;66.82;100162.81;5060941;28;20036;-31
2022/04/23 04:09:10;;;;;;;15.52;13.93;;;;;;;7.61;67.19;100162.84;5059725;28;20036;-31
2022/04/23 04:14:20;;;;;;;13.23;11.93;;;;;;;7.55;66.66;100158.50;5062959;28;20036;-31
2022/04/23 04:16:46;;;;;;;13.95;12.45;;;;;;;7.50;67.44;100161.13;5062801;28;21365;-31
2022/04/23 04:19:15;;;;;;;14.88;12.10;;;;;;;7.47;67.27;100158.50;5048938;28;20070;-31
2022/04/23 04:21:44;;;;;;;15.13;12.65;;;;;;;7.44;67.33;100161.19;5061868;28;20025;-31
2022/04/23 04:24:13;;;;;;;13.55;12.13;;;;;;;7.41;67.16;100159.41;5065058;28;20017;-31
2022/04/23 04:26:40;;;;;;;15.02;12.82;;;;;;;7.41;67.32;100161.19;5064148;28;20028;-31
2022/04/23 04:29:06;;;;;;;14.40;12.50;;;;;;;7.38;67.28;100159.44;5062533;28;20401;-31
2022/04/23 04:31:49;;;;;;;16.33;12.98;;;;;;;7.36;66.98;100165.56;5062740;28;20031;-29
2022/04/23 04:34:21;;;;;;;14.10;12.68;;;;;;;7.32;67.40;100165.59;5063419;28;20028;-31
2022/04/23 04:36:47;;;;;;;14.98;12.23;;;;;;;7.32;67.34;100162.97;5076019;28;20115;-31
2022/04/23 04:39:14;;;;;;;15.57;12.95;;;;;;;7.30;67.56;100169.06;5063202;28;20059;-31
2022/04/23 04:41:39;;;;;;;15.77;13.05;;;;;;;7.29;67.57;100162.97;5063180;28;20035;-31
2022/04/23 04:44:05;;;;;;;14.25;12.40;;;;;;;7.29;67.06;100169.97;5065123;28;20017;-30
2022/04/23 04:46:32;;;;;;;16.42;13.35;;;;;;;7.26;67.39;100170.84;5065590;28;20162;-30
2022/04/23 04:48:57;;;;;;;14.70;13.10;;;;;;;7.26;67.24;100181.34;5048717;28;20028;-31
2022/04/23 04:51:22;;;;;;;15.07;13.48;;;;;;;7.23;67.80;100183.97;5063951;28;20020;-31
2022/04/23 04:53:48;;;;;;;16.63;14.15;;;;;;;7.22;67.38;100184.84;5061146;28;20031;-31
2022/04/23 04:56:13;;;;;;;16.77;13.63;;;;;;;7.22;67.51;100179.63;5062311;28;20823;-31
2022/04/23 04:58:40;;;;;;;17.38;14.40;;;;;;;7.19;67.57;100177.88;5060750;28;20031;-31
2022/04/23 05:01:05;;;;;;;16.83;14.07;;;;;;;7.19;68.00;100177.00;5046877;28;20393;-31
2022/04/23 05:03:31;;;;;;;16.35;13.10;;;;;;;7.18;67.76;100183.13;5062359;28;20031;-31
2022/04/23 05:05:56;;;;;;;15.60;12.52;;;;;;;7.19;67.88;100182.25;5061051;28;20043;-31
2022/04/23 05:08:21;;;;;;;16.58;14.00;;;;;;;7.17;67.72;100182.25;5065623;28;20020;-31
2022/04/23 05:10:47;;;;;;;15.85;13.73;;;;;;;7.17;67.95;100189.25;5067703;28;20070;-31
2022/04/23 05:13:12;;;;;;;16.23;13.75;;;;;;;7.17;67.80;100186.63;5064343;28;20067;-29
2022/04/23 05:15:38;;;;;;;16.40;14.25;;;;;;;7.17;68.15;100192.72;5067331;28;20495;-31
2022/04/23 05:18:04;;;;;;;20.10;14.48;;;;;;;7.18;67.88;100198.84;5069262;28;20089;-31
2022/04/23 05:20:29;;;;;;;16.85;13.52;;;;;;;7.18;67.90;100198.84;5063976;28;20431;-31
2022/04/23 05:22:55;;;;;;;17.45;13.85;;;;;;;7.17;68.05;100194.50;5063713;28;20041;-31
2022/04/23 05:25:20;;;;;;;18.67;14.82;;;;;;;7.18;68.31;100197.09;5067646;28;20483;-31
2022/04/23 05:27:45;;;;;;;17.20;14.00;;;;;;;7.18;68.45;100199.72;5065044;28;20719;-31
2022/04/23 05:30:11;;;;;;;17.42;13.48;;;;;;;7.19;68.49;100205.84;5069578;28;20077;-31
2022/04/23 05:32:36;;;;;;;17.75;14.52;;;;;;;7.19;68.48;100208.47;5064412;28;20086;-31
2022/04/23 05:35:02;;;;;;;19.70;15.15;;;;;;;7.21;68.24;100201.47;5064610;28;20463;-32
2022/04/23 05:37:27;;;;;;;17.20;14.70;;;;;;;7.21;68.05;100209.34;5064785;28;20115;-30
2022/04/23 05:39:52;;;;;;;18.35;14.73;;;;;;;7.23;68.60;100218.06;5063418;28;20036;-29
2022/04/23 05:42:17;;;;;;;17.52;14.95;;;;;;;7.24;68.59;100214.56;5063739;28;20036;-31
2022/04/23 05:44:43;;;;;;;19.95;15.38;;;;;;;7.26;68.82;100223.31;5064653;28;20480;-31
2022/04/23 05:47:08;;;;;;;16.90;14.40;;;;;;;7.29;68.55;100219.81;5067705;28;20051;-31
2022/04/23 05:49:33;;;;;;;17.60;15.15;;;;;;;7.29;68.56;100220.69;5063381;28;20032;-31
2022/04/23 05:51:59;;;;;;;16.92;15.07;;;;;;;7.31;68.34;100226.78;5066356;28;20033;-31
2022/04/23 05:54:24;;;;;;;18.45;15.30;;;;;;;7.34;68.88;100219.81;5061791;28;20021;-31
2022/04/23 05:56:49;;;;;;;17.48;15.20;;;;;;;7.36;68.68;100225.91;5065770;28;20093;-31
2022/04/23 05:59:14;;;;;;;18.40;15.57;;;;;;;7.39;68.76;100228.53;5066471;28;20034;-32
2022/04/23 06:01:40;;;;;;;22.15;15.77;;;;;;;7.41;68.75;100227.63;5062209;28;20089;-30
2022/04/23 06:04:05;;;;;;;17.42;15.23;;;;;;;7.46;68.86;100234.66;5064156;28;20094;-31
2022/04/23 06:06:30;;;;;;;20.67;15.45;;;;;;;7.49;68.55;100242.47;5067690;28;20028;-31
2022/04/23 06:08:57;;;;;;;18.85;15.88;;;;;;;7.52;69.21;100240.72;5062643;28;20564;-31
2022/04/23 06:11:22;;;;;;;18.60;15.77;;;;;;;7.57;69.50;100244.22;5067888;28;20056;-31
2022/04/23 06:13:47;;;;;;;18.27;14.48;;;;;;;7.62;69.42;100232.81;5065955;28;20025;-31
2022/04/23 06:16:12;;;;;;;19.25;15.98;;;;;;;7.66;69.73;100237.16;5062752;28;20020;-31
2022/04/23 06:18:38;;;;;;;21.00;16.60;;;;;;;7.70;69.81;100242.41;5061143;28;20112;-31
2022/04/23 06:21:03;;;;;;;18.20;15.57;;;;;;;7.76;69.87;100240.63;5065975;28;20036;-31
2022/04/23 06:23:28;;;;;;;16.90;14.77;;;;;;;7.79;69.81;100243.25;5062441;28;20055;-30
2022/04/23 06:25:54;;;;;;;19.02;14.88;;;;;;;7.85;69.73;100247.59;5066060;28;20108;-31
2022/04/23 06:28:19;;;;;;;19.20;17.13;;;;;;;7.88;69.74;100247.59;5055915;28;20463;-31
2022/04/23 06:30:44;;;;;;;18.35;15.00;;;;;;;7.93;69.97;100245.81;5064077;28;20041;-31
2022/04/23 06:33:10;;;;;;;20.00;16.17;;;;;;;7.97;69.61;100252.78;5063301;28;20024;-30
2022/04/23 06:35:35;;;;;;;17.95;16.00;;;;;;;8.03;69.62;100257.13;5060858;28;20469;-31
2022/04/23 06:38:01;;;;;;;18.15;15.10;;;;;;;8.07;69.83;100253.63;5063931;28;20031;-31
2022/04/23 06:40:26;;;;;;;20.17;15.30;;;;;;;8.14;69.71;100264.97;5065902;28;20563;-30
2022/04/23 06:42:52;;;;;;;18.48;15.48;;;;;;;8.18;69.46;100261.44;5060508;28;20024;-31
2022/04/23 06:45:17;;;;;;;17.63;15.15;;;;;;;8.23;69.48;100259.66;5066806;28;20457;-31
2022/04/23 06:47:42;;;;;;;18.15;16.25;;;;;;;8.30;69.30;100265.75;5063514;28;20016;-31
2022/04/23 06:50:08;;;;;;;16.85;14.75;;;;;;;8.34;69.26;100244.69;5064277;28;20036;-31
2022/04/23 06:52:33;;;;;;;18.48;15.38;;;;;;;8.42;69.19;100249.03;5063876;28;20037;-31
2022/04/23 06:54:59;;;;;;;17.60;14.65;;;;;;;8.48;68.97;100249.00;5064125;28;20028;-31
2022/04/23 06:57:26;;;;;;;18.85;14.93;;;;;;;8.54;68.96;100254.22;5064001;28;20111;-31
2022/04/23 06:59:52;;;;;;;16.63;14.70;;;;;;;8.63;68.76;100249.78;5066579;28;20111;-29
2022/04/23 07:02:18;;;;;;;16.08;14.02;;;;;;;8.66;68.48;100247.13;5063601;28;20028;-29
2022/04/23 07:04:43;;;;;;;18.35;14.80;;;;;;;8.77;68.32;100250.53;5061808;28;20032;-34
2022/04/23 07:07:10;;;;;;;16.10;14.40;;;;;;;8.84;68.16;100248.75;5067136;28;20018;-31
2022/04/23 07:09:36;;;;;;;14.98;12.57;;;;;;;8.92;67.64;100249.53;5058283;28;20119;-31
2022/04/23 07:12:01;;;;;;;15.35;13.05;;;;;;;9.01;67.95;100253.84;5060663;28;20103;-31
2022/04/23 07:14:27;;;;;;;16.75;13.38;;;;;;;9.08;67.88;100252.03;5061596;28;20031;-30
2022/04/23 07:16:52;;;;;;;17.08;13.63;;;;;;;9.17;67.99;100259.81;5065033;28;20064;-30
2022/04/23 07:19:17;;;;;;;17.13;13.57;;;;;;;9.24;67.72;100250.97;5061008;28;20078;-30
2022/04/23 07:21:43;;;;;;;15.63;13.45;;;;;;;9.34;67.52;100246.47;5060934;28;20373;-30
2022/04/23 07:24:10;;;;;;;15.23;13.18;;;;;;;9.42;67.48;100250.78;5062009;28;20435;-29
2022/04/23 07:26:36;;;;;;;15.23;13.43;;;;;;;9.53;67.59;100248.91;5063506;28;20162;-29
2022/04/23 07:29:07;;;;;;;14.68;12.73;;;;;;;9.61;67.37;100249.69;5061558;28;20029;-30
2022/04/23 07:31:33;;;;;;;15.15;13.07;;;;;;;9.72;67.66;100243.44;5062079;28;20033;-29
2022/04/23 07:39:26;;;;;;;13.50;12.02;;;;;;;10.02;67.20;100238.66;5066082;28;20047;-30
2022/04/23 07:41:54;;;;;;;16.48;12.98;;;;;;;10.11;66.94;100233.25;5056962;28;20024;-30
2022/04/23 07:44:19;;;;;;;14.63;13.02;;;;;;;10.20;66.71;100241.94;5062082;28;20471;-30
2022/04/23 07:46:45;;;;;;;15.05;12.35;;;;;;;10.29;66.54;100223.34;5062717;28;20028;-30
2022/04/23 07:49:10;;;;;;;13.98;12.35;;;;;;;10.42;67.85;100237.19;5067651;28;20096;-29
2022/04/23 07:51:36;;;;;;;14.00;12.32;;;;;;;10.50;66.97;100224.78;5065692;28;20024;-31
2022/04/23 07:54:01;;;;;;;13.27;11.90;;;;;;;10.57;65.61;100220.28;5065768;28;20035;-29
2022/04/23 07:56:27;;;;;;;14.60;11.82;;;;;;;10.69;66.39;100220.97;5066654;28;20024;-29
2022/04/23 07:58:52;;;;;;;13.43;12.02;;;;;;;10.81;67.38;100225.19;5059762;28;20020;-32
2022/04/23 08:01:17;;;;;;;12.10;10.90;;;;;;;10.89;66.88;100226.78;5060340;28;20031;-32
2022/04/23 08:03:43;;;;;;;11.48;10.27;;;;;;;11.02;68.10;100231.84;5063718;28;20027;-30
2022/04/23 08:06:10;;;;;;;12.68;11.38;;;;;;;11.11;68.46;100215.81;5059159;28;20036;-31
2022/04/23 08:08:36;;;;;;;11.30;10.20;;;;;;;11.16;65.04;100219.28;5062524;28;20110;-29
2022/04/23 08:11:01;;;;;;;11.30;10.05;;;;;;;11.30;66.08;100215.47;5064419;28;20024;-29
2022/04/23 08:13:27;;;;;;;10.93;8.93;;;;;;;11.38;64.67;100221.50;5064347;28;20020;-30
2022/04/23 08:15:52;;;;;;;13.13;10.55;;;;;;;11.48;64.11;100226.59;5061168;28;20043;-30
2022/04/23 08:18:18;;;;;;;10.27;9.18;;;;;;;11.57;65.20;100231.66;5063364;28;20029;-29
2022/04/23 08:20:45;;;;;;;11.40;8.90;;;;;;;11.65;63.72;100216.56;5066145;28;20017;-29
2022/04/23 08:23:10;;;;;;;9.88;8.88;;;;;;;11.74;64.02;100214.63;5061672;28;20112;-29
2022/04/23 08:25:36;;;;;;;10.48;8.55;;;;;;;11.84;64.50;100217.94;5062462;28;20087;-29
2022/04/23 08:30:46;;;;;;;9.02;8.15;;;;;;;12.01;61.77;100222.84;5062580;28;20458;-29
2022/04/23 08:33:11;;;;;;;10.25;7.95;;;;;;;12.03;58.58;100200.75;5060826;28;20025;-29
2022/04/23 08:35:38;;;;;;;10.38;8.13;;;;;;;12.14;59.72;100205.81;5061739;28;20499;-30
2022/04/23 08:38:04;;;;;;;9.77;8.13;;;;;;;12.28;62.50;100207.28;5062544;28;20055;-30
2022/04/23 08:40:36;;;;;;;7.90;7.15;;;;;;;12.39;64.12;100205.25;5063122;28;20111;-29
2022/04/23 08:43:01;;;;;;;7.95;7.15;;;;;;;12.51;64.00;100208.50;5063048;28;20020;-31
2022/04/23 08:45:27;;;;;;;8.10;7.30;;;;;;;12.62;65.42;100198.53;5064524;28;21121;-29
2022/04/23 08:47:52;;;;;;;7.97;7.18;;;;;;;12.74;64.96;100199.13;5063250;28;20729;-30
2022/04/23 08:50:21;;;;;;;7.22;6.07;;;;;;;12.88;60.28;100197.00;5063904;28;20077;-29
2022/04/23 08:52:52;;;;;;;7.13;6.50;;;;;;;12.98;63.10;100192.31;5062265;28;20024;-29
2022/04/23 08:55:19;;;;;;;7.32;6.63;;;;;;;13.05;62.27;100195.66;5059090;28;20111;-31
2022/04/23 08:57:44;;;;;;;7.57;6.78;;;;;;;13.17;63.68;100200.63;5061966;28;20032;-29
2022/04/23 09:00:12;;;;;;;7.78;6.32;;;;;;;13.28;64.16;100196.81;5064253;28;20035;-29
2022/04/23 09:02:37;;;;;;;6.60;6.00;;;;;;;13.33;62.63;100193.13;5048629;28;20458;-29
2022/04/23 09:05:03;;;;;;;7.00;6.30;;;;;;;13.40;60.55;100191.16;5063147;28;20103;-29
2022/04/23 09:07:29;;;;;;;7.40;6.70;;;;;;;13.54;63.77;100196.09;5063080;28;20411;-30
2022/04/23 09:09:58;;;;;;;6.78;6.07;;;;;;;13.62;62.40;100187.03;5061602;28;20021;-29
2022/04/23 09:12:26;;;;;;;6.10;5.57;;;;;;;13.71;62.32;100182.34;5062813;28;20033;-30
2022/04/23 09:14:52;;;;;;;6.55;5.95;;;;;;;13.81;62.20;100184.72;5061360;28;20024;-29
2022/04/23 09:25:44;;;;;;;6.95;5.97;;;;;;;14.19;60.70;100172.03;5061201;28;20091;-31
2022/04/23 09:28:20;;;;;;;6.03;5.53;;;;;;;14.28;60.07;100173.53;5063005;28;20434;-30
2022/04/23 09:30:50;;;;;;;6.47;5.82;;;;;;;14.36;59.75;100170.63;5058936;28;20048;-29
2022/04/23 09:33:15;;;;;;;6.72;6.03;;;;;;;14.45;59.96;100174.75;5045925;28;20027;-28
2022/04/23 09:36:01;;;;;;;7.35;6.65;;;;;;;14.58;61.43;100175.22;5047655;28;21160;-28
2022/04/23 09:38:28;;;;;;;5.90;5.40;;;;;;;14.67;61.43;100168.72;5059878;28;20035;-29
2022/04/23 09:40:54;;;;;;;6.72;5.90;;;;;;;14.77;60.91;100174.59;5058438;28;20021;-28
2022/04/23 09:43:29;;;;;;;6.57;5.90;;;;;;;14.85;59.86;100173.44;5056835;28;20078;-28
2022/04/23 09:46:13;;;;;;;6.13;5.47;;;;;;;14.95;59.27;100167.78;5059174;28;20029;-29
2022/04/23 09:48:39;;;;;;;8.57;6.35;;;;;;;15.04;59.15;100171.91;5061042;28;20103;-28
2022/04/23 09:51:26;;;;;;;6.32;5.50;;;;;;;15.12;58.71;100161.88;5067100;28;20048;-29
2022/04/23 09:53:54;;;;;;;6.45;5.85;;;;;;;15.18;58.17;100164.31;5067015;28;20023;-34
2022/04/23 09:56:22;;;;;;;7.60;6.90;;;;;;;15.25;58.01;100165.78;5050305;28;20094;-30
2022/04/23 09:58:47;;;;;;;8.05;7.22;;;;;;;15.32;56.74;100154.94;5066329;28;20444;-29
2022/04/23 10:01:13;;;;;;;6.78;6.10;;;;;;;15.36;56.07;100154.78;5046495;28;20027;-29
2022/04/23 10:03:44;;;;;;;6.60;5.97;;;;;;;15.45;56.32;100150.94;5064929;28;20078;-29
2022/04/23 10:06:11;;;;;;;7.05;6.40;;;;;;;15.54;56.64;100154.16;5067908;28;20064;-30
2022/04/23 10:08:41;;;;;;;6.72;5.90;;;;;;;15.62;56.83;100162.69;5064845;28;20032;-32
2022/04/23 10:11:18;;;;;;;6.22;5.60;;;;;;;15.70;56.90;100149.13;5063652;28;20040;-29
2022/04/23 10:13:45;;;;;;;7.90;7.03;;;;;;;15.76;56.02;100144.41;5059637;28;20086;-32
2022/04/23 10:16:11;;;;;;;7.25;6.55;;;;;;;15.84;56.03;100152.06;5064733;28;20031;-28
2022/04/23 10:18:38;;;;;;;7.28;6.13;;;;;;;15.91;56.37;100142.94;5066743;28;20026;-28
2022/04/23 10:21:08;;;;;;;7.40;6.70;;;;;;;15.97;55.77;100144.50;5065852;28;20396;-30
2022/04/23 10:24:09;;;;;;;7.07;6.38;;;;;;;16.03;55.21;100138.97;5066676;28;20106;-28
2022/04/23 10:26:59;;;;;;;7.20;6.30;;;;;;;16.12;54.70;100144.81;5062627;28;20040;-28
2022/04/23 10:29:27;;;;;;;7.13;6.50;;;;;;;16.18;54.94;100122.44;5051885;28;20033;-28
2022/04/23 10:32:10;;;;;;;7.13;6.35;;;;;;;16.25;54.30;100132.75;5048165;28;20036;-30
2022/04/23 10:34:36;;;;;;;7.53;6.70;;;;;;;16.31;54.43;100134.31;5065638;28;20365;-30
2022/04/23 10:37:14;;;;;;;7.20;6.47;;;;;;;16.39;54.41;100110.88;5066451;28;20503;-28
2022/04/23 10:39:42;;;;;;;7.43;6.72;;;;;;;16.44;54.09;100129.31;5063450;28;20032;-28
2022/04/23 10:42:07;;;;;;;7.03;6.18;;;;;;;16.50;54.36;100123.72;5059576;28;20477;-28
2022/04/23 10:44:33;;;;;;;6.80;6.13;;;;;;;16.58;54.36;100125.19;5046231;28;20042;-28
2022/04/23 10:46:58;;;;;;;7.32;6.63;;;;;;;16.61;54.28;100109.09;5046862;28;20029;-28
2022/04/23 10:49:25;;;;;;;7.57;6.32;;;;;;;16.68;53.92;100118.56;5060422;28;20400;-29
2022/04/23 10:51:58;;;;;;;7.10;6.40;;;;;;;16.73;53.64;100105.88;5061671;28;20027;-29
2022/04/23 10:54:47;;;;;;;7.25;6.55;;;;;;;16.83;53.74;100113.47;5077546;28;20028;-29
2022/04/23 10:57:13;;;;;;;7.47;6.45;;;;;;;16.87;53.66;100110.59;5074058;22;20024;-30
2022/04/23 11:00:11;;;;;;;6.78;6.07;;;;;;;16.96;53.44;100095.13;5045040;28;20032;-28
2022/04/23 11:02:39;;;;;;;7.22;6.53;;;;;;;17.01;53.25;100095.81;5080628;28;20088;-29
2022/04/23 11:13:39;;;;;;;6.85;6.22;;;;;;;17.33;52.59;100089.97;5044583;28;20113;-27
2022/04/23 11:16:11;;;;;;;7.97;5.72;;;;;;;17.39;52.72;100095.00;5045930;28;20108;-28
2022/04/23 11:18:37;;;;;;;6.82;6.13;;;;;;;17.46;52.97;100083.13;5045083;28;20048;-28
2022/04/23 11:21:09;;;;;;;6.13;5.53;;;;;;;17.51;52.69;100091.75;5042741;28;20029;-29
2022/04/23 11:23:37;;;;;;;7.32;6.40;;;;;;;17.56;52.55;100079.06;5060388;28;20032;-28
2022/04/23 11:26:02;;;;;;;7.30;6.25;;;;;;;17.61;52.62;100078.00;5040902;28;21432;-28
2022/04/23 11:28:29;;;;;;;6.85;6.10;;;;;;;17.64;51.83;100078.69;5042047;28;20110;-28
2022/04/23 11:30:57;;;;;;;7.13;6.53;;;;;;;17.70;51.57;100083.75;5047520;28;20020;-28
2022/04/23 11:33:22;;;;;;;6.05;5.47;;;;;;;17.74;51.54;100076.44;5042689;28;20095;-27
2022/04/23 11:35:47;;;;;;;6.85;6.15;;;;;;;17.80;51.18;100083.28;5044996;28;20104;-28
2022/04/23 11:38:20;;;;;;;6.72;6.13;;;;;;;17.87;51.27;100083.88;5043871;28;20094;-28
2022/04/23 11:40:45;;;;;;;6.43;5.82;;;;;;;17.89;51.30;100087.31;5047906;28;20028;-28
2022/04/23 11:43:12;;;;;;;6.63;5.93;;;;;;;17.92;50.97;100066.69;5045904;28;20032;-27
2022/04/23 11:45:45;;;;;;;7.50;6.70;;;;;;;18.00;51.17;100079.63;5044420;28;20073;-28